Time;durP1;ratioP1;P1;durP2;ratioP2;P2;SDS_P1;SDS_P2;PMS_P1;PMS_P2;Temp;Humidity;BMP_temperature;BMP_pressure;BME280_temperature;BME280_humidity;BME280_pressure;Samples;Min_cycle;Max_cycle;Signal;HPM_P1;HPM_P2
2023/05/15 00:01:30;;;;;;;36.20;27.25;;;;;;;11.50;100.00;101394.97;5030759;28;20393;-45
2023/05/15 00:03:55;;;;;;;38.13;28.10;;;;;;;11.49;100.00;101405.22;5030654;28;20080;-45
2023/05/15 00:06:21;;;;;;;37.17;27.88;;;;;;;11.38;100.00;101404.53;5030651;28;20021;-48
2023/05/15 00:08:46;;;;;;;38.15;29.50;;;;;;;11.26;100.00;101404.16;5030558;28;20032;-45
2023/05/15 00:11:11;;;;;;;38.63;28.52;;;;;;;11.27;100.00;101405.78;5031092;28;20029;-47
2023/05/15 00:13:39;;;;;;;37.15;29.20;;;;;;;11.19;100.00;101406.47;5032757;28;20409;-46
2023/05/15 00:16:06;;;;;;;36.30;28.25;;;;;;;11.19;100.00;101401.72;5034321;28;20037;-45
2023/05/15 00:18:32;;;;;;;37.15;27.83;;;;;;;11.18;100.00;101389.03;5034314;28;20032;-46
2023/05/15 00:20:57;;;;;;;37.38;28.63;;;;;;;11.23;100.00;101386.19;5034256;28;20021;-46
2023/05/15 00:23:22;;;;;;;38.33;27.40;;;;;;;11.29;100.00;101380.59;5034211;28;20041;-45
2023/05/15 00:25:48;;;;;;;35.47;27.20;;;;;;;11.32;100.00;101378.06;5034306;28;20030;-45
2023/05/15 00:28:13;;;;;;;38.70;28.25;;;;;;;11.25;100.00;101372.03;5033876;28;20423;-45
2023/05/15 00:30:38;;;;;;;35.72;27.50;;;;;;;11.19;100.00;101376.81;5034181;28;20178;-47
2023/05/15 00:33:03;;;;;;;36.33;27.65;;;;;;;11.12;100.00;101379.13;5034046;28;20029;-45
2023/05/15 00:35:29;;;;;;;38.58;28.58;;;;;;;11.13;100.00;101371.66;5034181;28;20542;-47
2023/05/15 00:37:54;;;;;;;37.35;28.63;;;;;;;11.08;100.00;101380.84;5033818;28;20167;-46
2023/05/15 00:40:22;;;;;;;36.40;27.50;;;;;;;10.99;100.00;101388.97;5033909;28;20046;-47
2023/05/15 00:42:49;;;;;;;36.72;28.08;;;;;;;10.86;100.00;101382.22;5033787;28;20069;-45
2023/05/15 00:45:16;;;;;;;35.90;28.48;;;;;;;10.84;100.00;101378.09;5033862;28;20084;-47
2023/05/15 00:47:42;;;;;;;35.88;27.65;;;;;;;10.78;100.00;101377.34;5033669;28;20098;-45
2023/05/15 00:50:08;;;;;;;36.13;28.20;;;;;;;10.85;100.00;101368.69;5033704;28;20068;-47
2023/05/15 00:52:35;;;;;;;35.85;27.65;;;;;;;10.79;100.00;101372.63;5033386;28;20037;-47
2023/05/15 00:55:00;;;;;;;39.47;29.13;;;;;;;10.71;100.00;101371.34;5033639;28;20025;-46
2023/05/15 00:57:26;;;;;;;37.47;29.52;;;;;;;10.68;100.00;101369.97;5033438;28;20076;-50
2023/05/15 00:59:51;;;;;;;38.80;28.70;;;;;;;10.70;100.00;101364.16;5033480;28;20028;-44
2023/05/15 01:02:18;;;;;;;38.40;29.35;;;;;;;10.67;100.00;101360.03;5033449;28;20033;-44
2023/05/15 01:04:43;;;;;;;38.08;28.10;;;;;;;10.68;100.00;101363.63;5033469;28;20052;-44
2023/05/15 01:07:09;;;;;;;41.72;32.47;;;;;;;10.55;100.00;101365.16;5032918;28;20417;-43
2023/05/15 01:09:35;;;;;;;40.63;30.58;;;;;;;10.52;100.00;101360.19;5033133;28;20457;-45
2023/05/15 01:12:01;;;;;;;40.10;29.27;;;;;;;10.52;100.00;101366.56;5028656;28;20700;-46
2023/05/15 01:14:26;;;;;;;41.05;31.27;;;;;;;10.40;100.00;101363.38;5033218;28;20107;-43
2023/05/15 01:16:52;;;;;;;40.15;31.23;;;;;;;10.33;100.00;101362.84;5033282;28;20033;-46
2023/05/15 01:19:17;;;;;;;44.65;32.03;;;;;;;10.33;100.00;101369.19;5033174;28;20033;-45
2023/05/15 01:22:14;;;;;;;41.25;31.35;;;;;;;10.35;100.00;101357.84;5032180;28;20485;-46
2023/05/15 01:24:58;;;;;;;43.05;31.35;;;;;;;10.34;100.00;101358.97;5033186;28;20042;-45
2023/05/15 01:27:54;;;;;;;42.20;30.85;;;;;;;10.35;100.00;101355.06;5033105;28;20037;-45
2023/05/15 01:30:34;;;;;;;44.35;33.60;;;;;;;10.26;100.00;101352.13;5032525;28;20424;-44
2023/05/15 01:33:26;;;;;;;45.08;34.80;;;;;;;10.17;100.00;101353.88;5032964;28;20040;-44
2023/05/15 01:36:00;;;;;;;44.55;32.90;;;;;;;10.09;100.00;101349.78;5032943;28;20029;-45
2023/05/15 01:38:55;;;;;;;45.40;33.10;;;;;;;10.10;100.00;101345.91;5032672;28;20041;-48
2023/05/15 01:41:51;;;;;;;44.28;32.30;;;;;;;10.07;100.00;101346.50;5032755;28;20049;-46
2023/05/15 01:44:34;;;;;;;43.38;33.13;;;;;;;10.08;100.00;101348.97;5032623;28;20057;-46
2023/05/15 01:47:09;;;;;;;45.80;35.47;;;;;;;10.01;100.00;101339.38;5032694;28;20480;-46
2023/05/15 01:49:35;;;;;;;45.08;33.97;;;;;;;9.93;100.00;101344.41;5032553;28;20030;-46
2023/05/15 01:52:13;;;;;;;46.33;34.33;;;;;;;9.91;100.00;101340.28;5032591;28;20131;-45
2023/05/15 01:54:39;;;;;;;46.92;35.40;;;;;;;10.03;100.00;101348.19;5032550;28;20033;-46
2023/05/15 01:57:07;;;;;;;47.25;35.47;;;;;;;10.01;100.00;101342.97;5032277;28;20129;-49
2023/05/15 01:59:34;;;;;;;47.05;34.92;;;;;;;10.07;100.00;101350.09;5032267;28;20025;-45
2023/05/15 02:02:01;;;;;;;46.83;33.60;;;;;;;10.07;100.00;101336.28;5032379;28;20692;-47
2023/05/15 02:04:26;;;;;;;44.53;33.47;;;;;;;10.11;100.00;101347.56;5032325;28;20078;-44
2023/05/15 02:06:53;;;;;;;45.95;34.05;;;;;;;10.05;100.00;101337.69;5031698;28;20022;-46
2023/05/15 02:09:22;;;;;;;42.90;34.03;;;;;;;9.98;100.00;101336.06;5028487;28;20025;-46
2023/05/15 02:11:48;;;;;;;46.20;34.10;;;;;;;9.92;100.00;101334.47;5031747;28;20017;-44
2023/05/15 02:14:16;;;;;;;46.38;34.03;;;;;;;9.90;100.00;101333.94;5031878;28;20032;-47
2023/05/15 02:16:41;;;;;;;43.92;33.53;;;;;;;9.90;100.00;101335.88;5031915;28;20041;-48
2023/05/15 02:19:07;;;;;;;46.28;34.50;;;;;;;9.82;100.00;101342.84;5032141;28;20021;-44
2023/05/15 02:21:33;;;;;;;45.33;33.67;;;;;;;9.86;100.00;101332.88;5031970;28;20112;-46
2023/05/15 02:23:58;;;;;;;44.38;32.38;;;;;;;9.91;100.00;101320.94;5031982;28;20032;-46
2023/05/15 02:27:01;;;;;;;43.38;32.63;;;;;;;9.89;100.00;101332.28;5031483;28;20017;-47
2023/05/15 02:29:38;;;;;;;46.33;33.42;;;;;;;9.88;100.00;101335.34;5031791;28;20174;-45
2023/05/15 02:32:12;;;;;;;44.63;33.80;;;;;;;9.98;100.00;101332.47;5032003;28;20029;-45
2023/05/15 02:34:46;;;;;;;45.35;34.35;;;;;;;9.95;100.00;101333.91;5031822;28;20021;-45
2023/05/15 02:37:17;;;;;;;46.22;34.90;;;;;;;9.93;100.00;101332.50;5031427;28;20040;-44
2023/05/15 02:39:44;;;;;;;46.40;33.78;;;;;;;9.90;100.00;101335.88;5031661;28;20045;-48
2023/05/15 02:42:12;;;;;;;47.28;35.35;;;;;;;9.87;100.00;101334.50;5031944;28;20048;-49
2023/05/15 02:44:39;;;;;;;46.33;33.80;;;;;;;9.87;100.00;101340.03;5031939;28;20389;-49
2023/05/15 02:47:05;;;;;;;49.67;35.42;;;;;;;9.84;100.00;101335.91;5031486;28;20029;-48
2023/05/15 02:49:30;;;;;;;47.63;34.20;;;;;;;9.86;100.00;101337.56;5031742;28;20036;-46
2023/05/15 02:51:55;;;;;;;46.63;33.50;;;;;;;9.88;100.00;101343.63;5031881;28;20026;-49
2023/05/15 02:54:21;;;;;;;47.33;35.85;;;;;;;9.88;100.00;101343.63;5031688;28;20507;-48
2023/05/15 02:56:46;;;;;;;45.83;34.78;;;;;;;9.91;100.00;101340.28;5031843;28;20040;-50
2023/05/15 02:59:17;;;;;;;46.95;34.05;;;;;;;9.84;100.00;101338.66;5031793;28;20034;-50
2023/05/15 03:01:43;;;;;;;47.15;35.95;;;;;;;9.81;100.00;101336.50;5031694;28;20485;-49
2023/05/15 03:04:08;;;;;;;46.65;35.25;;;;;;;9.73;100.00;101337.09;5031800;28;20049;-48
2023/05/15 03:06:33;;;;;;;52.45;38.55;;;;;;;9.58;100.00;101345.50;5031512;28;20163;-49
2023/05/15 03:08:59;;;;;;;51.15;39.30;;;;;;;9.41;100.00;101343.13;5031686;28;20030;-46
2023/05/15 03:11:24;;;;;;;46.80;36.05;;;;;;;9.40;100.00;101345.06;5029222;28;20087;-45
2023/05/15 03:13:49;;;;;;;52.33;37.90;;;;;;;9.33;100.00;101348.16;5030140;28;20040;-48
2023/05/15 03:16:15;;;;;;;52.95;39.25;;;;;;;9.31;100.00;101341.28;5031474;28;20108;-45
2023/05/15 03:18:41;;;;;;;54.97;38.35;;;;;;;9.29;100.00;101349.00;5031318;28;20029;-44
2023/05/15 03:21:06;;;;;;;49.58;37.65;;;;;;;9.31;100.00;101346.78;5045823;28;20036;-47
2023/05/15 03:23:31;;;;;;;56.80;39.10;;;;;;;9.27;100.00;101345.69;5051221;28;20029;-47
2023/05/15 03:25:56;;;;;;;54.72;39.13;;;;;;;9.18;100.00;101342.72;5051425;28;20037;-49
2023/05/15 03:28:22;;;;;;;53.95;40.80;;;;;;;9.13;100.00;101342.75;5051189;28;20479;-44
2023/05/15 03:30:47;;;;;;;63.72;44.42;;;;;;;9.05;100.00;101341.41;5051117;28;20031;-44
2023/05/15 03:33:12;;;;;;;56.80;39.63;;;;;;;9.04;100.00;101348.03;5049312;28;20029;-44
2023/05/15 03:35:38;;;;;;;58.58;41.03;;;;;;;8.98;100.00;101338.13;5049566;28;20476;-45
2023/05/15 03:38:03;;;;;;;56.63;39.47;;;;;;;8.99;100.00;101337.00;5049559;28;20049;-44
2023/05/15 03:40:28;;;;;;;65.70;42.15;;;;;;;8.95;100.00;101324.91;5051127;28;20040;-45
2023/05/15 03:42:55;;;;;;;58.15;40.58;;;;;;;8.96;100.00;101334.84;5049614;28;20084;-46
2023/05/15 03:45:20;;;;;;;57.92;41.55;;;;;;;8.98;100.00;101327.91;5051995;28;20029;-44
2023/05/15 03:47:45;;;;;;;58.08;41.00;;;;;;;9.01;100.00;101321.84;5054282;28;20041;-48
2023/05/15 03:50:11;;;;;;;61.58;42.40;;;;;;;8.95;100.00;101319.38;5054804;28;20025;-45
2023/05/15 03:52:36;;;;;;;59.38;41.67;;;;;;;8.90;100.00;101321.03;5055018;28;20029;-48
2023/05/15 03:55:01;;;;;;;58.05;41.40;;;;;;;8.91;100.00;101324.66;5054861;28;20115;-46
2023/05/15 03:57:27;;;;;;;64.68;41.40;;;;;;;8.87;100.00;101323.56;5054891;28;20060;-46
2023/05/15 03:59:52;;;;;;;66.20;42.45;;;;;;;8.83;100.00;101323.28;5055005;28;20025;-44
2023/05/15 04:02:17;;;;;;;58.65;40.17;;;;;;;8.87;100.00;101323.56;5054670;28;20035;-46
2023/05/15 04:04:43;;;;;;;62.40;40.38;;;;;;;8.89;100.00;101330.44;5054868;28;20093;-47
2023/05/15 04:07:09;;;;;;;64.38;40.47;;;;;;;8.85;100.00;101323.00;5054582;28;20033;-48
2023/05/15 04:09:34;;;;;;;59.30;40.60;;;;;;;8.82;100.00;101323.59;5054629;28;20024;-46
2023/05/15 04:11:59;;;;;;;64.63;42.40;;;;;;;8.86;100.00;101322.75;5051152;28;20025;-46
2023/05/15 04:14:24;;;;;;;60.97;40.30;;;;;;;8.88;100.00;101319.69;5054553;28;20021;-45
2023/05/15 04:16:50;;;;;;;64.15;41.97;;;;;;;8.88;100.00;101319.69;5054324;28;20037;-47
2023/05/15 04:19:15;;;;;;;58.63;39.67;;;;;;;8.83;100.00;101317.78;5054527;28;20020;-45
2023/05/15 04:21:40;;;;;;;60.10;39.97;;;;;;;8.94;100.00;101323.25;5053014;28;20417;-45
2023/05/15 04:24:06;;;;;;;59.90;40.35;;;;;;;9.02;100.00;101325.41;5054190;28;20025;-45
2023/05/15 04:26:32;;;;;;;63.22;42.08;;;;;;;8.96;100.00;101312.75;5054177;28;20028;-45
2023/05/15 04:28:58;;;;;;;58.95;41.53;;;;;;;8.88;100.00;101316.94;5054461;28;20021;-46
2023/05/15 04:31:24;;;;;;;63.10;43.38;;;;;;;8.81;100.00;101322.75;5052664;28;20032;-46
2023/05/15 04:33:50;;;;;;;62.80;40.17;;;;;;;8.83;100.00;101322.47;5054117;28;20044;-44
2023/05/15 04:36:15;;;;;;;58.47;39.63;;;;;;;8.83;100.00;101331.56;5054215;28;20025;-45
2023/05/15 04:38:41;;;;;;;61.20;39.83;;;;;;;8.86;100.00;101333.78;5054245;28;20048;-46
2023/05/15 04:41:06;;;;;;;63.60;39.63;;;;;;;8.96;100.00;101332.88;5053984;28;20373;-45
2023/05/15 04:43:31;;;;;;;61.20;40.53;;;;;;;9.00;100.00;101333.16;5053928;28;20032;-44
2023/05/15 04:45:57;;;;;;;60.28;39.35;;;;;;;8.98;100.00;101349.16;5054146;28;20507;-45
2023/05/15 04:48:22;;;;;;;61.55;40.95;;;;;;;9.02;100.00;101341.97;5053924;28;20033;-45
2023/05/15 04:50:47;;;;;;;57.92;37.78;;;;;;;9.07;100.00;101352.16;5054034;28;20029;-45
2023/05/15 04:53:13;;;;;;;53.58;37.25;;;;;;;9.01;100.00;101362.41;5053813;28;20436;-45
2023/05/15 04:55:38;;;;;;;54.38;38.55;;;;;;;8.93;100.00;101366.56;5054023;28;20033;-47
2023/05/15 04:58:04;;;;;;;58.90;39.47;;;;;;;8.88;100.00;101366.59;5052648;28;20411;-45
2023/05/15 05:00:29;;;;;;;54.08;36.90;;;;;;;8.88;100.00;101359.13;5053789;28;20029;-45
2023/05/15 05:02:55;;;;;;;57.75;36.80;;;;;;;8.85;100.00;101370.75;5053924;28;20631;-45
2023/05/15 05:05:20;;;;;;;51.05;36.05;;;;;;;8.92;100.00;101373.22;5053830;28;20135;-48
2023/05/15 05:07:46;;;;;;;55.72;36.97;;;;;;;8.96;100.00;101368.75;5053809;28;20028;-48
2023/05/15 05:10:12;;;;;;;52.72;35.17;;;;;;;9.02;100.00;101364.88;5050623;28;20029;-46
2023/05/15 05:12:37;;;;;;;52.47;35.55;;;;;;;9.01;100.00;101371.53;5053726;28;20033;-46
2023/05/15 05:15:03;;;;;;;52.95;35.05;;;;;;;9.07;100.00;101371.47;5053563;28;20112;-45
2023/05/15 05:17:29;;;;;;;47.97;33.83;;;;;;;9.12;100.00;101371.44;5053494;28;20496;-46
2023/05/15 05:19:54;;;;;;;50.97;35.03;;;;;;;9.16;100.00;101378.06;5053582;28;20163;-47
2023/05/15 05:22:19;;;;;;;51.08;35.33;;;;;;;9.12;100.00;101374.19;5053561;28;20512;-46
2023/05/15 05:24:45;;;;;;;49.20;34.28;;;;;;;9.15;100.00;101373.66;5053381;28;20029;-46
2023/05/15 05:27:10;;;;;;;49.92;33.60;;;;;;;9.21;100.00;101373.34;5053115;28;20508;-45
2023/05/15 05:29:36;;;;;;;49.05;34.17;;;;;;;9.30;100.00;101376.34;5053148;28;20032;-45
2023/05/15 05:32:01;;;;;;;50.00;34.47;;;;;;;9.46;100.00;101392.81;5053015;28;20017;-46
2023/05/15 05:34:26;;;;;;;48.45;34.28;;;;;;;9.48;100.00;101387.84;5053056;28;20140;-44
2023/05/15 05:36:52;;;;;;;48.67;34.83;;;;;;;9.49;100.00;101390.31;5053201;28;20056;-45
2023/05/15 05:39:17;;;;;;;46.92;33.00;;;;;;;9.58;100.00;101386.94;5052904;28;20076;-46
2023/05/15 05:41:43;;;;;;;47.00;33.03;;;;;;;9.62;100.00;101380.56;5052957;28;20044;-44
2023/05/15 05:44:08;;;;;;;46.65;34.33;;;;;;;9.59;100.00;101394.13;5051833;28;20056;-47
2023/05/15 05:46:34;;;;;;;45.22;34.55;;;;;;;9.52;100.00;101397.19;5043218;28;20028;-47
2023/05/15 05:48:59;;;;;;;44.55;31.98;;;;;;;9.55;100.00;101390.25;5033050;28;20075;-46
2023/05/15 05:51:24;;;;;;;48.35;34.13;;;;;;;9.62;100.00;101388.03;5032635;28;20030;-47
2023/05/15 05:53:49;;;;;;;42.60;30.98;;;;;;;9.77;100.00;101382.38;5032645;28;20033;-45
2023/05/15 05:56:15;;;;;;;42.97;31.35;;;;;;;9.96;100.00;101382.53;5032584;28;20060;-45
2023/05/15 05:58:40;;;;;;;44.17;31.33;;;;;;;10.08;100.00;101384.91;5032500;28;20021;-46
2023/05/15 06:01:06;;;;;;;43.80;31.02;;;;;;;10.24;100.00;101379.25;5032507;28;20038;-50
2023/05/15 06:03:32;;;;;;;41.55;30.33;;;;;;;10.28;100.00;101380.31;5032553;28;20083;-46
2023/05/15 06:05:57;;;;;;;39.72;30.80;;;;;;;10.20;100.00;101383.72;5032437;28;20457;-46
2023/05/15 06:08:23;;;;;;;38.15;29.52;;;;;;;10.12;100.00;101380.44;5031950;28;20028;-45
2023/05/15 06:10:48;;;;;;;38.83;29.70;;;;;;;10.05;100.00;101384.69;5032438;28;20312;-47
2023/05/15 06:13:14;;;;;;;38.80;29.65;;;;;;;10.06;100.00;101383.56;5028967;28;20053;-48
2023/05/15 06:15:39;;;;;;;40.05;30.67;;;;;;;10.06;100.00;101381.63;5032073;28;20161;-47
2023/05/15 06:18:05;;;;;;;40.08;30.45;;;;;;;10.08;100.00;101381.31;5031863;28;20550;-45
2023/05/15 06:20:30;;;;;;;40.70;29.70;;;;;;;10.15;100.00;101387.34;5031960;28;20048;-49
2023/05/15 06:22:56;;;;;;;39.60;29.60;;;;;;;10.31;100.00;101388.00;5031989;28;20388;-46
2023/05/15 06:25:21;;;;;;;39.05;28.75;;;;;;;10.52;100.00;101394.22;5031936;28;20653;-48
2023/05/15 06:27:46;;;;;;;39.38;30.50;;;;;;;10.60;100.00;101396.34;5031788;28;20108;-47
2023/05/15 06:30:12;;;;;;;39.05;29.52;;;;;;;10.72;100.00;101393.16;5031623;28;20017;-47
2023/05/15 06:32:39;;;;;;;40.17;29.63;;;;;;;10.84;100.00;101406.59;5031739;28;20030;-45
2023/05/15 06:35:05;;;;;;;39.22;29.80;;;;;;;10.82;100.00;101408.00;5031574;28;20116;-47
2023/05/15 06:37:30;;;;;;;37.63;28.52;;;;;;;11.01;100.00;101395.06;5029458;28;20527;-45
2023/05/15 06:39:55;;;;;;;41.47;29.40;;;;;;;11.14;100.00;101395.47;5030120;28;20172;-46
2023/05/15 06:42:21;;;;;;;39.28;29.23;;;;;;;11.21;100.00;101390.38;5030066;28;20044;-47
2023/05/15 06:44:48;;;;;;;40.58;29.77;;;;;;;11.29;100.00;101386.94;5029263;28;20079;-48
2023/05/15 06:47:13;;;;;;;40.03;29.35;;;;;;;11.47;100.00;101387.25;5029308;28;20032;-46
2023/05/15 06:49:39;;;;;;;41.22;30.58;;;;;;;11.60;100.00;101394.00;5029345;28;20025;-48
2023/05/15 06:52:04;;;;;;;39.92;29.27;;;;;;;11.69;100.00;101383.88;5029157;28;20025;-50
2023/05/15 06:54:30;;;;;;;40.55;28.60;;;;;;;11.81;100.00;101388.94;5029188;28;20362;-46
2023/05/15 06:56:55;;;;;;;38.50;28.80;;;;;;;12.08;100.00;101390.25;5030242;28;20049;-46
2023/05/15 06:59:20;;;;;;;40.20;28.40;;;;;;;12.26;99.98;101386.59;5031083;28;20034;-47
2023/05/15 07:01:46;;;;;;;40.15;29.27;;;;;;;12.33;98.65;101391.72;5031024;28;20171;-47
2023/05/15 07:04:11;;;;;;;38.92;28.05;;;;;;;12.37;98.37;101390.00;5031160;28;20040;-46
2023/05/15 07:06:36;;;;;;;38.08;28.38;;;;;;;12.42;97.25;101391.84;5031115;28;20028;-46
2023/05/15 07:09:03;;;;;;;37.92;27.27;;;;;;;12.41;95.50;101393.81;5031201;28;20101;-46
2023/05/15 07:11:28;;;;;;;37.03;27.38;;;;;;;12.43;96.09;101380.44;5031189;28;20033;-51
2023/05/15 07:13:54;;;;;;;36.47;28.02;;;;;;;12.43;92.98;101388.78;5031024;28;20025;-47
2023/05/15 07:16:19;;;;;;;42.10;29.20;;;;;;;12.52;93.46;101379.72;5029750;28;20021;-46
2023/05/15 07:18:44;;;;;;;36.97;29.55;;;;;;;12.50;90.15;101380.06;5031061;28;20061;-48
2023/05/15 07:21:10;;;;;;;37.58;28.23;;;;;;;12.62;91.99;101380.38;5033447;28;20033;-46
2023/05/15 07:23:35;;;;;;;37.97;28.63;;;;;;;12.82;91.61;101392.22;5035105;28;20026;-47
2023/05/15 07:26:01;;;;;;;38.90;30.15;;;;;;;13.02;90.93;101392.94;5035155;28;20033;-46
2023/05/15 07:28:26;;;;;;;35.90;29.25;;;;;;;13.12;87.61;101401.06;5041128;28;20485;-45
2023/05/15 07:30:51;;;;;;;35.42;27.92;;;;;;;13.23;87.75;101391.34;5054304;28;20040;-45
2023/05/15 07:33:17;;;;;;;34.38;27.80;;;;;;;13.31;86.71;101384.25;5054118;28;20029;-46
2023/05/15 07:35:42;;;;;;;33.83;26.48;;;;;;;13.35;85.77;101382.50;5053532;28;20028;-45
2023/05/15 07:38:07;;;;;;;34.40;27.35;;;;;;;13.36;85.17;101380.53;5053589;28;20366;-46
2023/05/15 07:40:33;;;;;;;35.67;30.55;;;;;;;13.32;85.05;101379.53;5054434;28;20040;-46
2023/05/15 07:42:58;;;;;;;34.80;28.40;;;;;;;13.23;85.85;101373.88;5054198;28;20108;-46
2023/05/15 07:45:24;;;;;;;34.17;27.23;;;;;;;13.32;85.94;101377.56;5054366;28;20044;-46
2023/05/15 07:47:49;;;;;;;34.50;27.70;;;;;;;13.50;86.50;101380.53;5052829;28;20028;-45
2023/05/15 07:50:15;;;;;;;35.70;27.23;;;;;;;13.60;86.27;101383.09;5043214;28;20444;-45
2023/05/15 07:52:41;;;;;;;35.47;27.08;;;;;;;13.66;85.62;101379.03;5042933;28;20163;-43
2023/05/15 07:55:07;;;;;;;36.83;29.13;;;;;;;13.59;84.99;101380.63;5048635;28;20036;-45
2023/05/15 07:57:32;;;;;;;35.33;27.92;;;;;;;13.65;85.71;101371.81;5038494;28;20029;-46
2023/05/15 07:59:58;;;;;;;33.20;26.27;;;;;;;13.78;84.00;101377.66;5033961;28;20108;-46
2023/05/15 08:02:23;;;;;;;33.85;27.52;;;;;;;13.80;82.67;101376.19;5033761;28;20017;-49
2023/05/15 08:04:48;;;;;;;33.33;26.13;;;;;;;13.87;82.30;101371.03;5033880;28;20080;-48
2023/05/15 08:07:14;;;;;;;34.08;27.13;;;;;;;13.95;81.08;101361.09;5032482;28;20434;-45
2023/05/15 08:09:39;;;;;;;38.70;30.17;;;;;;;13.99;81.85;101375.19;5032522;28;20393;-47
2023/05/15 08:12:34;;;;;;;38.65;30.02;;;;;;;13.98;83.07;101365.22;5032175;28;20029;-46
2023/05/15 08:14:59;;;;;;;34.85;28.92;;;;;;;13.97;80.60;101364.38;5023345;28;20042;-45
2023/05/15 08:17:25;;;;;;;34.28;27.10;;;;;;;14.15;79.85;101353.38;5032170;28;20026;-48
2023/05/15 08:19:51;;;;;;;32.10;26.20;;;;;;;14.31;79.40;101354.59;5032177;28;20045;-50
2023/05/15 08:22:16;;;;;;;32.95;25.95;;;;;;;14.47;77.86;101357.81;5030248;28;20091;-46
2023/05/15 08:24:42;;;;;;;32.30;25.33;;;;;;;14.55;76.15;101359.00;5031980;28;20037;-46
2023/05/15 08:27:08;;;;;;;34.70;27.42;;;;;;;14.72;77.38;101354.66;5032288;28;20041;-46
2023/05/15 08:29:37;;;;;;;35.53;27.40;;;;;;;14.91;76.68;101351.63;5031813;28;20045;-50
2023/05/15 08:32:02;;;;;;;33.40;27.08;;;;;;;14.98;75.01;101352.78;5031721;28;20029;-48
2023/05/15 08:34:28;;;;;;;33.40;26.25;;;;;;;15.19;73.97;101356.94;5032104;28;20037;-46
2023/05/15 08:36:55;;;;;;;32.38;26.08;;;;;;;15.42;73.98;101354.81;5031941;28;20036;-49
2023/05/15 08:39:20;;;;;;;34.28;26.27;;;;;;;15.66;73.06;101357.13;5031528;28;20508;-47
2023/05/15 08:41:54;;;;;;;32.40;25.00;;;;;;;15.86;71.63;101354.84;5030362;28;20056;-45
2023/05/15 08:44:21;;;;;;;31.17;24.08;;;;;;;16.00;70.43;101361.06;5031424;28;20125;-45
2023/05/15 08:46:46;;;;;;;31.63;25.40;;;;;;;16.37;70.48;101360.66;5031679;28;20030;-45
2023/05/15 08:49:20;;;;;;;30.77;25.90;;;;;;;16.28;68.48;101354.28;5031720;28;20435;-49
2023/05/15 08:51:46;;;;;;;30.02;24.65;;;;;;;16.44;69.35;101358.16;5030116;28;20484;-45
2023/05/15 08:54:13;;;;;;;32.95;25.45;;;;;;;16.37;68.63;101349.47;5031706;28;20037;-45
2023/05/15 08:56:38;;;;;;;33.08;26.17;;;;;;;16.41;69.43;101353.22;5031525;28;20467;-47
2023/05/15 08:59:04;;;;;;;32.10;25.98;;;;;;;16.32;70.25;101346.84;5031385;28;20104;-47
2023/05/15 09:01:30;;;;;;;31.42;25.70;;;;;;;16.25;69.80;101346.56;5029944;28;20087;-50
2023/05/15 09:03:56;;;;;;;30.25;24.85;;;;;;;16.31;70.47;101346.03;5031221;28;20025;-50
2023/05/15 09:06:21;;;;;;;32.53;26.35;;;;;;;16.32;69.32;101353.28;5031078;28;20141;-47
2023/05/15 09:08:48;;;;;;;31.83;25.80;;;;;;;16.18;70.09;101349.84;5031180;28;20036;-45
2023/05/15 09:11:15;;;;;;;32.75;24.15;;;;;;;16.12;70.07;101356.78;5031149;28;20025;-45
2023/05/15 09:13:40;;;;;;;30.17;24.92;;;;;;;16.18;70.30;101356.25;5031221;28;20029;-45
2023/05/15 09:16:06;;;;;;;31.10;25.70;;;;;;;16.36;70.52;101350.63;5031362;28;20461;-46
2023/05/15 09:18:32;;;;;;;30.73;25.00;;;;;;;16.57;69.92;101350.72;5031094;28;20120;-45
2023/05/15 09:21:32;;;;;;;31.75;25.52;;;;;;;16.56;70.06;101357.44;5031076;28;20120;-45
2023/05/15 09:24:22;;;;;;;31.15;25.25;;;;;;;16.67;68.77;101358.72;5029122;28;20029;-46
2023/05/15 09:27:04;;;;;;;32.40;25.98;;;;;;;16.71;68.95;101361.66;5029586;28;20025;-46
2023/05/15 09:29:30;;;;;;;30.42;24.23;;;;;;;16.78;67.33;101352.75;5030796;28;20064;-45
2023/05/15 09:32:00;;;;;;;30.92;25.58;;;;;;;16.87;68.25;101342.34;5030915;28;20040;-48
2023/05/15 09:34:33;;;;;;;29.75;23.92;;;;;;;16.74;66.60;101348.97;5031136;28;20029;-45
2023/05/15 09:37:01;;;;;;;28.50;23.30;;;;;;;16.65;66.68;101352.66;5046169;28;20037;-47
2023/05/15 09:39:26;;;;;;;28.80;23.15;;;;;;;16.64;65.75;101353.78;5050461;28;20049;-46
2023/05/15 09:41:52;;;;;;;31.15;24.70;;;;;;;16.63;66.54;101345.75;5050594;28;20032;-48
2023/05/15 09:44:26;;;;;;;31.45;25.75;;;;;;;16.32;68.52;101356.06;5049962;28;20051;-47
2023/05/15 09:46:52;;;;;;;32.67;26.67;;;;;;;16.31;68.66;101354.41;5050754;28;20108;-48
2023/05/15 09:49:20;;;;;;;34.97;26.60;;;;;;;16.27;69.65;101363.78;5050769;28;20571;-48
2023/05/15 09:51:47;;;;;;;31.15;25.67;;;;;;;16.35;70.24;101349.78;5049670;28;20106;-48
2023/05/15 09:54:21;;;;;;;33.72;26.40;;;;;;;16.35;69.91;101349.00;5051122;28;20040;-49
2023/05/15 09:56:47;;;;;;;31.67;24.90;;;;;;;16.27;69.21;101355.41;5050588;28;20040;-48
2023/05/15 09:59:17;;;;;;;32.72;25.77;;;;;;;16.41;69.75;101344.03;5050469;28;20021;-47
2023/05/15 10:01:44;;;;;;;30.55;25.25;;;;;;;16.73;69.68;101347.34;5050498;28;20063;-47
2023/05/15 10:04:10;;;;;;;30.33;25.05;;;;;;;16.75;67.58;101359.00;5050314;28;20473;-48
2023/05/15 10:06:41;;;;;;;30.17;24.20;;;;;;;16.73;68.27;101358.50;5050048;28;20607;-46
2023/05/15 10:09:07;;;;;;;31.33;25.38;;;;;;;16.53;69.95;101360.94;5050250;28;20029;-47
2023/05/15 10:11:37;;;;;;;30.38;23.75;;;;;;;16.51;69.90;101361.25;5050320;28;20031;-46
2023/05/15 10:14:05;;;;;;;32.10;25.30;;;;;;;16.53;70.41;101356.16;5048852;28;20078;-46
2023/05/15 10:16:33;;;;;;;31.23;25.10;;;;;;;16.34;71.43;101370.47;5050316;28;20033;-45
2023/05/15 10:19:01;;;;;;;32.85;25.95;;;;;;;16.24;72.93;101359.72;5050211;28;20037;-49
2023/05/15 10:21:29;;;;;;;32.20;26.95;;;;;;;16.15;74.05;101368.09;5049920;28;20035;-50
2023/05/15 10:23:58;;;;;;;31.90;26.23;;;;;;;16.10;75.60;101367.44;5048589;28;20420;-47
2023/05/15 10:26:38;;;;;;;33.28;26.92;;;;;;;16.25;74.99;101368.88;5048881;28;20047;-46
2023/05/15 10:29:06;;;;;;;32.88;27.45;;;;;;;16.31;74.65;101373.13;5050080;28;20166;-46
2023/05/15 10:31:32;;;;;;;34.65;28.23;;;;;;;16.32;75.43;101374.78;5049882;28;20033;-49
2023/05/15 10:33:59;;;;;;;33.53;27.33;;;;;;;16.14;76.64;101366.44;5048880;28;20045;-46
2023/05/15 10:36:24;;;;;;;32.22;27.55;;;;;;;16.20;76.59;101378.25;5048667;28;20444;-48
2023/05/15 10:38:50;;;;;;;32.60;27.33;;;;;;;15.91;77.38;101368.63;5049039;28;20049;-45
2023/05/15 10:41:19;;;;;;;33.58;27.98;;;;;;;15.75;76.55;101369.09;5049526;28;20032;-46
2023/05/15 10:43:46;;;;;;;33.95;28.60;;;;;;;15.72;76.52;101374.53;5049494;28;20025;-44
2023/05/15 10:46:12;;;;;;;32.40;26.80;;;;;;;15.80;76.37;101368.13;5049488;28;20059;-46
2023/05/15 10:48:39;;;;;;;32.95;26.60;;;;;;;15.86;76.31;101368.78;5049142;28;20029;-47
2023/05/15 10:51:04;;;;;;;33.28;27.55;;;;;;;15.89;76.44;101368.94;5048038;28;20021;-45
2023/05/15 10:53:32;;;;;;;34.95;28.63;;;;;;;15.74;77.54;101364.66;5049560;28;20028;-48
2023/05/15 10:55:58;;;;;;;34.13;26.75;;;;;;;15.77;76.40;101360.38;5049370;28;20033;-48
2023/05/15 10:58:23;;;;;;;32.85;26.52;;;;;;;16.06;76.17;101364.50;5049603;28;20075;-45
2023/05/15 11:00:50;;;;;;;32.97;26.30;;;;;;;16.25;75.18;101361.31;5049552;28;20064;-45
2023/05/15 11:03:36;;;;;;;32.67;25.98;;;;;;;16.24;74.96;101370.03;5049364;28;20472;-45
2023/05/15 11:06:10;;;;;;;32.60;26.27;;;;;;;16.31;75.12;101371.19;5049558;28;20029;-46
2023/05/15 11:08:39;;;;;;;34.30;26.95;;;;;;;16.05;75.71;101377.63;5049266;28;20025;-46